KCKB/CKB METAR and TAF weather

Enter ICAO airport designator
Station Type Date Time Source
KCKB METAR 2019/02/23 16:59 UTC NOAA

KCKB 231659Z 14007KT 2 1/2SM -RA FEW020 OVC027 10/06 A3013 RMK AO2 P0000 T01000061


Station Type Date Time Source
KCKB Decoded METAR 2019/02/23 16:59 UTC NOAA

HARRISON/MARION REGIONAL, WV, United States (KCKB) 39-18N 080-13W 360M
Feb 23, 2019 - 11:59 AM EST / 2019.02.23 1659 UTC
Wind: from the SE (140 degrees) at 8 MPH (7 KT):0
Visibility: 2 1/2 mile(s):0
Sky conditions: overcast
Weather: light rain
Precipitation last hour: A trace
Temperature: 50.0 F (10.0 C)
Dew Point: 43.0 F (6.1 C)
Relative Humidity: 76%
Pressure (altimeter): 30.13 in. Hg (1020 hPa)
ob: KCKB 231659Z 14007KT 2 1/2SM -RA FEW020 OVC027 10/06 A3013 RMK AO2 P0000 T01000061
cycle: 17

Station Type Date Time Source
KCKB TAF 2019/02/23 15:54 UTC NOAA

TAF
AMD KCKB 231451Z 2315/2412 11006KT P6SM -RA OVC035
FM232000 14006KT P6SM OVC035
FM240100 14006KT P6SM -SHRA OVC025
FM240500 15006KT 5SM -SHRA OVC025
FM240900 19009G16KT P6SM -SHRA OVC025


Example: see airport list